createdAt,value
2017-07-02T00:01:54.937Z,12.53
2017-07-02T00:04:27.301Z,10.30
2017-07-02T00:06:59.700Z,11.70
2017-07-02T00:09:32.148Z,10.70
2017-07-02T00:12:04.481Z,11.27
2017-07-02T00:14:36.717Z,9.80
2017-07-02T00:17:09.197Z,10.63
2017-07-02T00:19:41.586Z,9.63
2017-07-02T00:22:13.881Z,9.67
2017-07-02T00:24:46.209Z,8.93
2017-07-02T00:27:18.685Z,10.37
2017-07-02T00:29:51.045Z,9.90
2017-07-02T00:32:23.529Z,9.57
2017-07-02T00:34:56.056Z,10.10
2017-07-02T00:37:28.149Z,9.83
2017-07-02T00:40:00.477Z,9.57
2017-07-02T00:42:32.957Z,10.80
2017-07-02T00:45:05.268Z,9.93
2017-07-02T00:47:37.580Z,9.00
2017-07-02T00:50:10.017Z,10.00
2017-07-02T00:52:42.541Z,11.07
2017-07-02T00:55:14.961Z,10.17
2017-07-02T00:57:47.469Z,11.00
2017-07-02T01:00:19.848Z,10.80
2017-07-02T01:02:53.193Z,10.97
2017-07-02T01:05:25.511Z,11.20
2017-07-02T01:07:57.905Z,11.37
2017-07-02T01:10:30.342Z,12.23
2017-07-02T01:13:02.985Z,12.03
2017-07-02T01:15:35.201Z,12.03
2017-07-02T01:18:07.568Z,12.27
2017-07-02T01:20:40.147Z,12.20
2017-07-02T01:23:12.303Z,12.30
2017-07-02T01:25:44.540Z,9.30
2017-07-02T01:28:18.188Z,10.90
2017-07-02T01:30:50.424Z,10.87
2017-07-02T01:33:22.783Z,9.83
2017-07-02T01:35:55.055Z,10.83
2017-07-02T01:38:27.988Z,9.17
2017-07-02T01:40:59.916Z,10.20
2017-07-02T01:43:32.348Z,10.70
2017-07-02T01:46:05.517Z,9.37
2017-07-02T01:48:37.924Z,9.70
2017-07-02T01:51:10.341Z,8.83
2017-07-02T01:53:42.604Z,8.30
2017-07-02T01:56:14.943Z,10.27
2017-07-02T01:58:47.307Z,9.73
2017-07-02T02:01:31.972Z,9.47
2017-07-02T02:04:04.080Z,9.60
2017-07-02T02:06:36.441Z,8.53
2017-07-02T02:09:08.228Z,9.73
2017-07-02T02:11:40.584Z,9.17
2017-07-02T02:14:13.163Z,8.73
2017-07-02T02:16:45.460Z,9.00
2017-07-02T02:19:17.868Z,9.20
2017-07-02T02:21:50.264Z,9.13
2017-07-02T02:24:22.628Z,9.07
2017-07-02T02:26:54.962Z,7.67
2017-07-02T02:29:27.436Z,9.50
2017-07-02T02:31:59.824Z,9.20
2017-07-02T02:34:32.209Z,9.03
2017-07-02T02:37:04.656Z,8.93
2017-07-02T02:39:37.866Z,9.60
2017-07-02T02:42:10.343Z,9.77
2017-07-02T02:44:42.725Z,8.50
2017-07-02T02:47:15.068Z,9.00
2017-07-02T02:49:47.462Z,9.17
2017-07-02T02:52:19.861Z,8.67
2017-07-02T02:54:52.404Z,8.17
2017-07-02T02:57:24.429Z,9.60
2017-07-02T02:59:56.848Z,9.10
2017-07-02T03:02:29.187Z,9.10
2017-07-02T03:05:01.816Z,9.40
2017-07-02T03:07:33.872Z,9.50
2017-07-02T03:10:06.245Z,10.30
2017-07-02T03:12:38.588Z,9.17
2017-07-02T03:15:11.015Z,10.70
2017-07-02T03:17:43.443Z,10.50
2017-07-02T03:20:15.873Z,10.10
2017-07-02T03:22:48.225Z,9.50
2017-07-02T03:25:20.536Z,11.27
2017-07-02T03:27:53.817Z,11.60
2017-07-02T03:30:26.306Z,11.00
2017-07-02T03:32:58.724Z,12.40
2017-07-02T03:35:31.226Z,13.50
2017-07-02T03:38:03.136Z,12.57
2017-07-02T03:40:35.496Z,13.00
2017-07-02T03:43:07.816Z,14.67
2017-07-02T03:45:40.192Z,14.17
2017-07-02T03:48:12.792Z,13.50
2017-07-02T03:50:44.828Z,16.13
2017-07-02T03:53:17.216Z,14.53
2017-07-02T03:55:49.589Z,14.07
2017-07-02T03:58:22.068Z,14.37
2017-07-02T04:00:54.500Z,14.53
2017-07-02T04:03:27.361Z,14.33
2017-07-02T04:05:59.232Z,12.50
2017-07-02T04:08:32.526Z,12.83
2017-07-02T04:11:04.931Z,13.93
2017-07-02T04:13:37.349Z,14.23
2017-07-02T04:16:09.809Z,13.70
2017-07-02T04:18:42.314Z,12.53
2017-07-02T04:21:14.760Z,12.60
2017-07-02T04:23:47.209Z,14.03
2017-07-02T04:26:19.575Z,14.17
2017-07-02T04:28:52.059Z,12.60
2017-07-02T04:31:24.351Z,11.97
2017-07-02T04:33:56.691Z,13.13
2017-07-02T04:36:29.231Z,12.80
2017-07-02T04:39:01.462Z,12.10
2017-07-02T04:41:33.927Z,12.90
2017-07-02T04:44:06.168Z,12.70
2017-07-02T04:46:38.510Z,13.17
2017-07-02T04:49:11.260Z,11.70
2017-07-02T04:51:43.428Z,11.13
2017-07-02T04:54:15.832Z,10.50
2017-07-02T04:56:48.485Z,12.20
2017-07-02T04:59:20.625Z,10.27
2017-07-02T05:01:53.045Z,10.67
2017-07-02T05:04:25.404Z,9.70
2017-07-02T05:06:57.765Z,10.63
2017-07-02T05:09:30.081Z,10.07
2017-07-02T05:12:09.431Z,9.97
2017-07-02T05:14:41.841Z,10.57
2017-07-02T05:17:14.175Z,8.90
2017-07-02T05:19:46.695Z,8.40
2017-07-02T05:22:19.192Z,8.93
2017-07-02T05:24:52.135Z,9.20
2017-07-02T05:27:24.942Z,8.27
2017-07-02T05:29:57.421Z,7.47
2017-07-02T05:32:29.892Z,8.30
2017-07-02T05:35:02.268Z,7.83
2017-07-02T05:37:34.665Z,7.60
2017-07-02T05:40:07.430Z,7.00
2017-07-02T05:42:39.495Z,7.17
2017-07-02T05:45:11.839Z,6.40
2017-07-02T05:47:44.375Z,6.47
2017-07-02T05:50:16.604Z,6.90
2017-07-02T05:52:49.068Z,6.60
2017-07-02T05:55:21.561Z,6.90
2017-07-02T05:57:54.197Z,6.50
2017-07-02T06:00:26.732Z,6.70
2017-07-02T06:02:58.737Z,7.17
2017-07-02T06:05:31.162Z,7.53
2017-07-02T06:08:03.573Z,8.20
2017-07-02T06:10:35.888Z,7.67
2017-07-02T06:13:08.472Z,7.60
2017-07-02T06:15:41.045Z,8.87
2017-07-02T06:18:13.772Z,8.27
2017-07-02T06:20:45.848Z,8.43
2017-07-02T06:23:18.215Z,8.80
2017-07-02T06:25:50.653Z,8.80
2017-07-02T06:28:23.204Z,8.70
2017-07-02T06:30:55.421Z,7.93
2017-07-02T06:33:27.892Z,7.93
2017-07-02T06:36:00.261Z,6.87
2017-07-02T06:38:32.656Z,7.37
2017-07-02T06:41:05.640Z,6.87
2017-07-02T06:43:38.318Z,6.80
2017-07-02T06:46:10.679Z,6.67
2017-07-02T06:48:43.096Z,7.00
2017-07-02T06:51:16.305Z,7.20
2017-07-02T06:53:48.735Z,6.90
2017-07-02T06:56:21.112Z,5.67
2017-07-02T06:58:54.548Z,5.97
2017-07-02T07:01:26.883Z,5.30
2017-07-02T07:03:59.148Z,5.13
2017-07-02T07:06:31.604Z,4.80
2017-07-02T07:09:04.023Z,5.70
2017-07-02T07:11:36.560Z,5.83
2017-07-02T07:14:08.690Z,6.57
2017-07-02T07:16:41.111Z,5.00
2017-07-02T07:19:13.476Z,5.00
2017-07-02T07:21:45.836Z,5.00
2017-07-02T07:24:18.120Z,4.73
2017-07-02T07:26:50.679Z,5.67
2017-07-02T07:29:23.292Z,5.23
2017-07-02T07:31:55.449Z,3.93
2017-07-02T07:34:27.961Z,4.83
2017-07-02T07:37:00.387Z,4.60
2017-07-02T07:39:33.077Z,4.13
2017-07-02T07:42:05.241Z,3.70
2017-07-02T07:44:37.711Z,3.60
2017-07-02T07:47:10.028Z,4.13
2017-07-02T07:49:42.721Z,3.10
2017-07-02T07:52:14.820Z,3.50
2017-07-02T07:54:47.261Z,3.80
2017-07-02T07:57:19.790Z,3.37
2017-07-02T07:59:52.187Z,4.20
2017-07-02T08:02:24.637Z,4.60
2017-07-02T08:04:57.028Z,4.00
2017-07-02T08:07:29.484Z,4.30
2017-07-02T08:10:01.991Z,4.70
2017-07-02T08:12:34.291Z,4.87
2017-07-02T08:15:06.812Z,4.40
2017-07-02T08:17:40.239Z,5.20
2017-07-02T08:20:12.417Z,4.60
2017-07-02T08:22:45.174Z,5.17
2017-07-02T08:25:17.238Z,4.70
2017-07-02T08:27:51.212Z,5.17
2017-07-02T08:30:23.136Z,6.20
2017-07-02T08:32:55.585Z,6.50
2017-07-02T08:35:28.096Z,6.57
2017-07-02T08:38:00.413Z,7.40
2017-07-02T08:40:33.059Z,5.93
2017-07-02T08:43:05.215Z,8.37
2017-07-02T08:45:37.547Z,10.20
2017-07-02T08:48:10.007Z,10.40
2017-07-02T08:50:42.908Z,10.20
2017-07-02T08:53:14.771Z,9.53
2017-07-02T08:55:47.193Z,11.10
2017-07-02T08:58:19.544Z,10.60
2017-07-02T09:00:52.099Z,11.17
2017-07-02T09:03:31.393Z,10.43
2017-07-02T09:06:04.341Z,12.50
2017-07-02T09:08:36.092Z,12.57
2017-07-02T09:11:08.442Z,13.03
2017-07-02T09:13:40.719Z,13.10
2017-07-02T09:16:13.197Z,12.97
2017-07-02T09:18:45.441Z,11.93
2017-07-02T09:21:17.834Z,12.63
2017-07-02T09:23:50.155Z,11.90
2017-07-02T09:26:22.901Z,12.33
2017-07-02T09:28:55.005Z,12.40
2017-07-02T09:31:27.316Z,10.80
2017-07-02T09:34:00.121Z,12.20
2017-07-02T09:36:32.097Z,12.97
2017-07-02T09:39:04.454Z,11.20
2017-07-02T09:41:36.963Z,12.13
2017-07-02T09:44:09.227Z,12.50
2017-07-02T09:46:41.779Z,14.27
2017-07-02T09:49:14.075Z,14.20
2017-07-02T09:51:46.549Z,14.17
2017-07-02T09:54:18.896Z,14.00
2017-07-02T09:56:51.290Z,14.83
2017-07-02T09:59:23.577Z,14.50
2017-07-02T10:01:55.940Z,16.53
2017-07-02T10:04:28.317Z,17.03
2017-07-02T10:07:00.609Z,16.97
2017-07-02T10:09:33.823Z,13.00
2017-07-02T10:12:06.453Z,18.10
2017-07-02T10:14:39.949Z,13.87
2017-07-02T10:17:12.339Z,16.27
2017-07-02T10:19:44.701Z,16.40
2017-07-02T10:22:17.185Z,18.17
2017-07-02T10:24:50.587Z,17.20
2017-07-02T10:27:23.893Z,18.70
2017-07-02T10:29:56.416Z,17.07
2017-07-02T10:32:28.940Z,16.83
2017-07-02T10:35:01.256Z,19.47
2017-07-02T10:37:33.789Z,17.60
2017-07-02T10:40:06.073Z,18.03
2017-07-02T10:42:38.537Z,17.17
2017-07-02T10:45:10.880Z,17.80
2017-07-02T10:47:43.264Z,19.57
2017-07-02T10:50:15.617Z,17.07
2017-07-02T10:52:47.919Z,17.63
2017-07-02T10:55:20.272Z,16.17
2017-07-02T10:57:52.657Z,17.47
2017-07-02T11:00:25.157Z,16.07
2017-07-02T11:02:57.573Z,17.40
2017-07-02T11:05:29.945Z,17.83
2017-07-02T11:08:02.257Z,16.67
2017-07-02T11:10:34.854Z,15.87
2017-07-02T11:13:07.302Z,14.77
2017-07-02T11:15:39.536Z,14.00
2017-07-02T11:18:11.857Z,14.03
2017-07-02T11:20:44.344Z,13.50
2017-07-02T11:23:16.755Z,13.93
2017-07-02T11:25:49.092Z,11.73
2017-07-02T11:28:21.558Z,12.50
2017-07-02T11:30:53.944Z,10.70
2017-07-02T11:33:26.265Z,10.93
2017-07-02T11:35:58.856Z,9.63
2017-07-02T11:38:31.158Z,9.97
2017-07-02T11:41:03.887Z,10.13
2017-07-02T11:43:36.041Z,9.37
2017-07-02T11:46:08.366Z,9.00
2017-07-02T11:48:40.728Z,8.80
2017-07-02T11:51:13.101Z,8.60
2017-07-02T11:53:46.344Z,9.63
2017-07-02T11:56:19.213Z,9.50
2017-07-02T11:58:51.177Z,9.73
2017-07-02T12:01:23.613Z,8.87
2017-07-02T12:03:56.009Z,9.30
2017-07-02T12:06:28.312Z,10.23
2017-07-02T12:09:00.657Z,9.37
2017-07-02T12:11:33.315Z,10.17
2017-07-02T12:14:05.889Z,8.63
2017-07-02T12:16:37.896Z,8.70
2017-07-02T12:19:10.157Z,10.60
2017-07-02T12:21:42.464Z,8.30
2017-07-02T12:24:14.828Z,8.30
2017-07-02T12:26:47.239Z,7.57
2017-07-02T12:29:20.612Z,8.00
2017-07-02T12:31:53.000Z,7.80
2017-07-02T12:34:25.599Z,7.33
2017-07-02T12:36:57.860Z,7.83
2017-07-02T12:39:30.252Z,7.90
2017-07-02T12:42:02.773Z,7.97
2017-07-02T12:44:35.141Z,7.70
2017-07-02T12:47:07.615Z,6.70
2017-07-02T12:49:39.971Z,7.90
2017-07-02T12:52:12.339Z,7.10
2017-07-02T12:54:44.712Z,7.80
2017-07-02T12:57:17.090Z,7.37
2017-07-02T12:59:49.343Z,7.27
2017-07-02T13:02:21.688Z,5.20
2017-07-02T13:04:54.207Z,6.43
2017-07-02T13:07:26.661Z,6.50
2017-07-02T13:09:59.035Z,5.73
2017-07-02T13:12:31.280Z,5.20
2017-07-02T13:15:05.178Z,5.77
2017-07-02T13:17:38.006Z,5.40
2017-07-02T13:20:10.312Z,5.80
2017-07-02T13:22:42.716Z,4.80
2017-07-02T13:25:15.116Z,4.47
2017-07-02T13:27:47.565Z,4.13
2017-07-02T13:30:19.901Z,4.40
2017-07-02T13:32:52.270Z,4.27
2017-07-02T13:35:24.660Z,3.60
2017-07-02T13:37:57.953Z,3.20
2017-07-02T13:40:30.468Z,3.07
2017-07-02T13:43:02.864Z,2.43
2017-07-02T13:45:35.178Z,2.03
2017-07-02T13:48:07.532Z,1.93
2017-07-02T13:50:39.929Z,1.30
2017-07-02T13:53:12.284Z,1.50
2017-07-02T13:55:44.731Z,1.60
2017-07-02T13:58:17.121Z,1.17
2017-07-02T14:00:49.471Z,1.33
2017-07-02T14:03:21.847Z,1.50
2017-07-02T14:05:54.345Z,1.10
2017-07-02T14:08:26.617Z,1.40
2017-07-02T14:10:59.267Z,1.17
2017-07-02T14:13:31.644Z,1.90
2017-07-02T14:16:04.683Z,1.40
2017-07-02T14:18:37.105Z,1.30
2017-07-02T14:21:09.449Z,2.00
2017-07-02T14:23:41.840Z,1.30
2017-07-02T14:26:14.559Z,1.47
2017-07-02T14:28:46.636Z,1.20
2017-07-02T14:31:19.059Z,1.40
2017-07-02T14:33:51.778Z,1.40
2017-07-02T14:36:23.741Z,1.70
2017-07-02T14:38:56.177Z,1.57
2017-07-02T14:41:28.516Z,1.10
2017-07-02T14:44:00.865Z,1.20
2017-07-02T14:46:33.243Z,2.70
2017-07-02T14:49:05.587Z,1.60
2017-07-02T14:51:38.079Z,1.30
2017-07-02T14:54:10.325Z,1.70
2017-07-02T14:56:42.636Z,1.63
2017-07-02T14:59:15.058Z,1.40
2017-07-02T15:02:02.299Z,1.40
2017-07-02T15:04:35.092Z,1.40
2017-07-02T15:07:07.526Z,1.33
2017-07-02T15:09:40.041Z,1.30
2017-07-02T15:12:12.356Z,1.60
2017-07-02T15:14:45.207Z,1.60
2017-07-02T15:17:19.306Z,1.13
2017-07-02T15:19:53.188Z,1.50
2017-07-02T15:22:26.999Z,1.30
2017-07-02T15:24:59.793Z,1.37
2017-07-02T15:27:32.591Z,1.83
2017-07-02T15:30:04.649Z,1.70
2017-07-02T15:32:38.091Z,1.20
2017-07-02T15:35:10.446Z,1.10
2017-07-02T15:37:42.882Z,1.13
2017-07-02T15:40:15.225Z,1.00
2017-07-02T15:42:47.573Z,1.10
2017-07-02T15:45:19.916Z,1.20
2017-07-02T15:47:52.996Z,0.93
2017-07-02T15:50:26.681Z,1.10
2017-07-02T15:52:59.216Z,1.07
2017-07-02T15:55:31.504Z,1.00
2017-07-02T15:58:03.992Z,1.17
2017-07-02T16:00:36.201Z,1.30
2017-07-02T16:03:08.997Z,0.70
2017-07-02T16:05:41.196Z,1.00
2017-07-02T16:08:13.659Z,1.03
2017-07-02T16:10:45.936Z,0.90
2017-07-02T16:13:18.394Z,0.90
2017-07-02T16:15:50.844Z,1.60
2017-07-02T16:18:23.180Z,1.07
2017-07-02T16:20:55.700Z,1.07
2017-07-02T16:23:29.112Z,1.33
2017-07-02T16:26:01.465Z,1.10
2017-07-02T16:28:33.940Z,1.40
2017-07-02T16:31:06.384Z,0.90
2017-07-02T16:33:39.075Z,1.33
2017-07-02T16:36:10.968Z,1.17
2017-07-02T16:38:43.507Z,1.30
2017-07-02T16:41:15.681Z,1.33
2017-07-02T16:43:48.068Z,1.20
2017-07-02T16:46:20.461Z,1.00
2017-07-02T16:48:53.805Z,1.30
2017-07-02T16:51:26.436Z,1.90
2017-07-02T16:53:58.744Z,1.70
2017-07-02T16:56:31.195Z,1.70
2017-07-02T16:59:03.669Z,1.67
2017-07-02T17:01:36.225Z,1.73
2017-07-02T17:04:08.603Z,1.93
2017-07-02T17:06:40.942Z,1.43
2017-07-02T17:09:13.341Z,1.70
2017-07-02T17:11:45.690Z,1.90
2017-07-02T17:14:18.132Z,1.63
2017-07-02T17:16:51.051Z,1.63
2017-07-02T17:19:22.787Z,2.50
2017-07-02T17:21:55.185Z,1.40
2017-07-02T17:24:27.715Z,1.70
2017-07-02T17:27:00.012Z,1.90
2017-07-02T17:29:32.692Z,1.50
2017-07-02T17:32:04.678Z,1.80
2017-07-02T17:34:37.488Z,2.27
2017-07-02T17:37:09.634Z,2.03
2017-07-02T17:39:42.367Z,1.93
2017-07-02T17:42:14.314Z,2.57
2017-07-02T17:44:46.656Z,1.93
2017-07-02T17:47:19.101Z,2.00
2017-07-02T17:49:51.377Z,1.70
2017-07-02T17:52:24.252Z,2.57
2017-07-02T17:54:56.115Z,2.20
2017-07-02T17:57:28.557Z,2.00
2017-07-02T18:00:00.944Z,1.80
2017-07-02T18:02:33.237Z,1.73
2017-07-02T18:05:05.524Z,1.63
2017-07-02T18:07:38.436Z,1.80
2017-07-02T18:10:10.556Z,2.03
2017-07-02T18:12:42.906Z,1.90
2017-07-02T18:15:15.340Z,2.20
2017-07-02T18:17:48.198Z,1.67
2017-07-02T18:20:20.263Z,1.70
2017-07-02T18:22:52.583Z,1.67
2017-07-02T18:25:26.630Z,2.00
2017-07-02T18:27:59.364Z,2.20
2017-07-02T18:30:31.685Z,2.17
2017-07-02T18:33:04.126Z,2.10
2017-07-02T18:35:36.673Z,2.20
2017-07-02T18:38:09.205Z,2.40
2017-07-02T18:40:41.779Z,2.33
2017-07-02T18:43:13.864Z,1.97
2017-07-02T18:45:46.544Z,2.40
2017-07-02T18:48:18.951Z,1.87
2017-07-02T18:50:51.355Z,1.60
2017-07-02T18:53:23.724Z,1.90
2017-07-02T18:55:56.146Z,1.50
2017-07-02T18:58:28.482Z,1.77
2017-07-02T19:01:00.847Z,1.83
2017-07-02T19:03:33.264Z,2.00
2017-07-02T19:06:05.631Z,2.27
2017-07-02T19:08:39.628Z,2.07
2017-07-02T19:11:11.445Z,2.03
2017-07-02T19:13:43.964Z,1.80
2017-07-02T19:16:16.400Z,2.03
2017-07-02T19:18:49.852Z,1.80
2017-07-02T19:21:22.428Z,2.43
2017-07-02T19:23:54.638Z,2.50
2017-07-02T19:26:27.185Z,1.90
2017-07-02T19:28:59.521Z,1.93
2017-07-02T19:31:33.026Z,1.43
2017-07-02T19:34:05.430Z,2.10
2017-07-02T19:36:37.873Z,1.57
2017-07-02T19:39:10.232Z,2.37
2017-07-02T19:41:43.139Z,2.40
2017-07-02T19:44:16.333Z,1.70
2017-07-02T19:46:49.020Z,1.47
2017-07-02T19:49:21.076Z,1.87
2017-07-02T19:51:53.556Z,1.70
2017-07-02T19:54:26.109Z,1.90
2017-07-02T19:56:58.547Z,1.67
2017-07-02T19:59:30.945Z,1.73
2017-07-02T20:02:03.392Z,1.80
2017-07-02T20:04:35.737Z,1.50
2017-07-02T20:07:08.216Z,1.77
2017-07-02T20:09:40.577Z,1.60
2017-07-02T20:12:13.080Z,1.43
2017-07-02T20:14:45.459Z,1.30
2017-07-02T20:17:17.817Z,2.07
2017-07-02T20:19:50.184Z,1.70
2017-07-02T20:22:22.672Z,1.73
2017-07-02T20:24:55.026Z,1.50
2017-07-02T20:27:27.420Z,1.87
2017-07-02T20:29:59.840Z,1.70
2017-07-02T20:32:32.377Z,1.60
2017-07-02T20:35:04.834Z,1.47
2017-07-02T20:37:37.051Z,1.50
2017-07-02T20:40:09.478Z,1.80
2017-07-02T20:42:41.817Z,1.60
2017-07-02T20:45:14.345Z,1.70
2017-07-02T20:47:46.825Z,1.87
2017-07-02T20:50:19.108Z,1.77
2017-07-02T20:52:51.528Z,1.50
2017-07-02T20:55:23.977Z,1.50
2017-07-02T20:57:56.305Z,1.77
2017-07-02T21:00:28.633Z,1.60
2017-07-02T21:03:01.066Z,2.17
2017-07-02T21:05:33.508Z,1.50
2017-07-02T21:08:06.163Z,2.00
2017-07-02T21:10:39.204Z,1.57
2017-07-02T21:13:11.760Z,1.43
2017-07-02T21:15:44.297Z,1.80
2017-07-02T21:18:17.531Z,1.30
2017-07-02T21:20:50.085Z,2.10
2017-07-02T21:23:22.537Z,1.10
2017-07-02T21:25:54.868Z,1.53
2017-07-02T21:28:27.351Z,1.43
2017-07-02T21:30:59.907Z,1.43
2017-07-02T21:33:32.088Z,1.63
2017-07-02T21:36:04.450Z,1.50
2017-07-02T21:38:37.715Z,1.60
2017-07-02T21:41:10.088Z,2.13
2017-07-02T21:43:42.524Z,1.90
2017-07-02T21:46:15.583Z,2.43
2017-07-02T21:48:48.301Z,1.80
2017-07-02T21:51:20.949Z,1.50
2017-07-02T21:53:53.087Z,1.70
2017-07-02T21:56:25.455Z,1.53
2017-07-02T21:58:57.984Z,1.77
2017-07-02T22:01:30.328Z,1.90
2017-07-02T22:04:02.708Z,1.83
2017-07-02T22:06:35.033Z,1.80
2017-07-02T22:09:07.493Z,1.60
2017-07-02T22:11:39.792Z,1.37
2017-07-02T22:14:12.237Z,1.30
2017-07-02T22:16:44.672Z,1.50
2017-07-02T22:19:16.985Z,1.40
2017-07-02T22:21:49.405Z,1.50
2017-07-02T22:24:21.818Z,1.40
2017-07-02T22:26:54.181Z,1.50
2017-07-02T22:29:26.856Z,1.60
2017-07-02T22:31:59.053Z,1.70
2017-07-02T22:34:31.520Z,1.30
2017-07-02T22:37:03.972Z,1.70
2017-07-02T22:39:36.417Z,1.50
2017-07-02T22:42:08.755Z,1.27
2017-07-02T22:44:41.901Z,1.77
2017-07-02T22:47:14.797Z,1.43
2017-07-02T22:49:46.945Z,1.30
2017-07-02T22:52:19.654Z,1.70
2017-07-02T22:54:52.805Z,1.70
2017-07-02T22:57:25.126Z,1.77
2017-07-02T22:59:57.925Z,1.73
2017-07-02T23:02:29.875Z,1.60
2017-07-02T23:05:02.268Z,1.33
2017-07-02T23:07:34.620Z,1.50
2017-07-02T23:10:06.988Z,1.83
2017-07-02T23:12:39.443Z,1.90
2017-07-02T23:15:11.960Z,1.43
2017-07-02T23:17:44.169Z,1.83
2017-07-02T23:20:16.586Z,1.60
2017-07-02T23:22:48.925Z,1.67
2017-07-02T23:25:21.269Z,1.70
2017-07-02T23:27:53.617Z,1.60
2017-07-02T23:30:25.992Z,2.00
2017-07-02T23:32:58.371Z,2.00
2017-07-02T23:35:30.823Z,1.90
2017-07-02T23:38:03.205Z,1.80
2017-07-02T23:40:35.519Z,1.63
2017-07-02T23:43:07.921Z,1.70
2017-07-02T23:45:40.397Z,1.90
2017-07-02T23:48:12.681Z,1.50
2017-07-02T23:50:45.176Z,1.70
2017-07-02T23:53:17.478Z,1.60
2017-07-02T23:55:49.821Z,2.23
2017-07-02T23:58:22.098Z,1.97
